Time;durP1;ratioP1;P1;durP2;ratioP2;P2;SDS_P1;SDS_P2;PMS_P1;PMS_P2;Temp;Humidity;BMP_temperature;BMP_pressure;BME280_temperature;BME280_humidity;BME280_pressure;Samples;Min_cycle;Max_cycle;Signal;HPM_P1;HPM_P2
2023/05/03 00:01:29;;;;;;;1.73;0.70;;;5.30;99.90;;;;;;5099689;28;20555;-77
2023/05/03 00:03:55;;;;;;;1.05;0.60;;;5.20;99.90;;;;;;5092319;28;20043;-77
2023/05/03 00:06:20;;;;;;;0.98;0.60;;;5.20;99.90;;;;;;5096327;28;21018;-77
2023/05/03 00:08:46;;;;;;;0.77;0.50;;;5.20;99.90;;;;;;5075545;28;20076;-77
2023/05/03 00:11:12;;;;;;;0.50;0.40;;;5.20;99.90;;;;;;5112425;27;20035;-77
2023/05/03 00:13:38;;;;;;;1.58;0.40;;;5.30;99.90;;;;;;5107917;27;20505;-77
2023/05/03 00:16:04;;;;;;;0.65;0.40;;;5.40;99.90;;;;;;5100267;28;20051;-77
2023/05/03 00:18:29;;;;;;;1.30;0.70;;;5.30;99.90;;;;;;5130663;27;20386;-77
2023/05/03 00:20:55;;;;;;;3.15;0.93;;;5.30;99.90;;;;;;5126502;27;20050;-77
2023/05/03 00:23:22;;;;;;;0.98;0.57;;;5.30;99.90;;;;;;5092619;28;20389;-77
2023/05/03 00:25:55;;;;;;;1.23;0.70;;;5.30;99.90;;;;;;5076797;28;20599;-77
2023/05/03 00:28:21;;;;;;;0.85;0.40;;;5.40;99.90;;;;;;5077302;28;20054;-77
2023/05/03 00:30:47;;;;;;;0.75;0.50;;;5.40;99.90;;;;;;5124984;27;20158;-77
2023/05/03 00:33:13;;;;;;;1.38;0.65;;;5.40;99.90;;;;;;5076450;28;20416;-77
2023/05/03 00:35:39;;;;;;;0.98;0.50;;;5.40;99.90;;;;;;5107744;27;20546;-77
2023/05/03 00:38:05;;;;;;;1.02;0.60;;;5.40;99.90;;;;;;5085816;28;20044;-77
2023/05/03 00:40:31;;;;;;;1.35;0.55;;;5.50;99.90;;;;;;5128001;27;20971;-77
2023/05/03 00:42:56;;;;;;;0.82;0.50;;;5.50;99.90;;;;;;5127541;27;20063;-77
2023/05/03 00:45:22;;;;;;;0.95;0.50;;;5.50;99.90;;;;;;5126455;27;20396;-77
2023/05/03 00:47:48;;;;;;;0.63;0.40;;;5.50;99.90;;;;;;5081361;28;20108;-77
2023/05/03 00:50:14;;;;;;;1.98;0.68;;;5.50;99.90;;;;;;5098041;28;20617;-77
2023/05/03 00:52:39;;;;;;;3.58;0.50;;;5.50;99.90;;;;;;5123851;27;20039;-77
2023/05/03 00:55:07;;;;;;;1.45;0.60;;;5.50;99.90;;;;;;5112548;27;20036;-77
2023/05/03 00:57:32;;;;;;;0.88;0.50;;;5.50;99.90;;;;;;5098285;28;20071;-77
2023/05/03 00:59:58;;;;;;;1.15;0.50;;;5.60;99.90;;;;;;5125593;27;20070;-77
2023/05/03 01:02:24;;;;;;;1.02;0.70;;;5.60;99.90;;;;;;5090892;28;20032;-77
2023/05/03 01:04:51;;;;;;;2.58;1.15;;;5.70;99.90;;;;;;5082034;28;20444;-77
2023/05/03 01:07:43;;;;;;;1.67;0.63;;;5.60;99.90;;;;;;5074399;28;20537;-77
2023/05/03 01:10:28;;;;;;;1.20;0.75;;;5.60;99.90;;;;;;5085539;28;20128;-77
2023/05/03 01:13:20;;;;;;;1.73;0.70;;;5.70;99.90;;;;;;5097156;28;20039;-77
2023/05/03 01:16:08;;;;;;;2.30;0.50;;;5.70;99.90;;;;;;5107675;27;20067;-77
2023/05/03 01:18:38;;;;;;;1.15;0.57;;;5.60;99.90;;;;;;5112851;27;20031;-77
2023/05/03 01:21:05;;;;;;;2.63;0.60;;;5.60;99.90;;;;;;5077533;28;20424;-77
2023/05/03 01:23:53;;;;;;;2.47;0.60;;;5.70;99.90;;;;;;5111859;27;20059;-77
2023/05/03 01:26:24;;;;;;;1.15;0.60;;;5.60;99.90;;;;;;5092446;28;20043;-77
2023/05/03 01:28:50;;;;;;;2.72;0.60;;;5.60;99.90;;;;;;5093990;28;20043;-77
2023/05/03 01:31:39;;;;;;;1.23;0.50;;;5.60;99.90;;;;;;5094226;28;20031;-77
2023/05/03 01:34:30;;;;;;;1.33;0.70;;;5.60;99.90;;;;;;5126361;27;20030;-77
2023/05/03 01:36:58;;;;;;;0.95;0.50;;;5.60;99.90;;;;;;5098534;28;20477;-77
2023/05/03 01:39:30;;;;;;;1.20;0.60;;;5.60;99.90;;;;;;5071908;28;20066;-77
2023/05/03 01:41:58;;;;;;;3.70;0.95;;;5.50;99.90;;;;;;5093716;28;20061;-77
2023/05/03 01:44:24;;;;;;;2.65;0.93;;;5.60;99.90;;;;;;5090393;27;20401;-77
2023/05/03 01:46:50;;;;;;;2.25;0.68;;;5.60;99.90;;;;;;5095539;28;20048;-77
2023/05/03 01:49:15;;;;;;;1.35;0.70;;;5.60;99.90;;;;;;5093945;28;20035;-77
2023/05/03 01:51:41;;;;;;;0.75;0.70;;;5.70;99.90;;;;;;5098116;28;20378;-77
2023/05/03 01:54:06;;;;;;;1.85;0.52;;;5.60;99.90;;;;;;5126933;27;20040;-77
2023/05/03 01:56:34;;;;;;;1.40;0.75;;;5.60;99.90;;;;;;5105055;27;20046;-77
2023/05/03 01:59:00;;;;;;;1.23;0.60;;;5.70;99.90;;;;;;5108260;27;20044;-77
2023/05/03 02:01:26;;;;;;;3.15;0.80;;;5.70;99.90;;;;;;5079866;28;20432;-77
2023/05/03 02:03:51;;;;;;;2.33;0.80;;;5.70;99.90;;;;;;5128001;27;20036;-77
2023/05/03 02:06:17;;;;;;;1.90;0.80;;;5.80;99.90;;;;;;5094859;28;20040;-77
2023/05/03 02:08:42;;;;;;;3.17;0.70;;;5.80;99.90;;;;;;5084506;28;20048;-77
2023/05/03 02:11:08;;;;;;;1.92;0.82;;;5.80;99.90;;;;;;5104331;28;20464;-77
2023/05/03 02:13:35;;;;;;;0.85;0.57;;;5.70;99.90;;;;;;5135051;27;20035;-77
2023/05/03 02:16:01;;;;;;;1.58;0.68;;;5.70;99.90;;;;;;5082167;28;20046;-77
2023/05/03 02:18:30;;;;;;;1.40;0.60;;;5.70;99.90;;;;;;5082968;28;20075;-77
2023/05/03 02:20:56;;;;;;;1.48;0.63;;;5.70;99.90;;;;;;5079484;28;20120;-77
2023/05/03 02:23:22;;;;;;;0.70;0.50;;;5.60;99.90;;;;;;5086822;28;20287;-77
2023/05/03 02:25:48;;;;;;;0.95;0.50;;;5.70;99.90;;;;;;5078085;28;20031;-77
2023/05/03 02:28:14;;;;;;;0.57;0.40;;;5.60;99.90;;;;;;5101425;28;20055;-77
2023/05/03 02:30:40;;;;;;;1.08;0.52;;;5.60;99.90;;;;;;5123542;27;20102;-77
2023/05/03 02:33:06;;;;;;;2.65;0.63;;;5.60;99.90;;;;;;5115274;27;20040;-77
2023/05/03 02:35:32;;;;;;;1.08;0.73;;;5.50;99.90;;;;;;5131000;27;20481;-77
2023/05/03 02:37:58;;;;;;;1.90;0.60;;;5.60;99.90;;;;;;5101394;27;20040;-77
2023/05/03 02:40:23;;;;;;;2.50;0.55;;;5.40;99.90;;;;;;5076376;28;20055;-77
2023/05/03 02:42:50;;;;;;;1.38;0.50;;;5.40;99.90;;;;;;5097140;28;20040;-77
2023/05/03 02:45:16;;;;;;;1.50;0.70;;;5.40;99.90;;;;;;5096499;28;20435;-77
2023/05/03 02:47:42;;;;;;;2.60;0.98;;;5.40;99.90;;;;;;5101295;28;20043;-77
2023/05/03 02:50:07;;;;;;;1.42;0.70;;;5.30;99.90;;;;;;5085291;28;20360;-77
2023/05/03 02:52:33;;;;;;;0.85;0.60;;;5.30;99.90;;;;;;5095071;28;20031;-77
2023/05/03 02:54:59;;;;;;;2.13;0.90;;;5.20;99.90;;;;;;5091583;28;20954;-77
2023/05/03 02:57:24;;;;;;;1.65;1.02;;;5.20;99.90;;;;;;5093366;28;20070;-77
2023/05/03 02:59:50;;;;;;;1.23;0.57;;;5.20;99.90;;;;;;5081068;28;20111;-77
2023/05/03 03:02:16;;;;;;;1.35;0.98;;;5.20;99.90;;;;;;5103295;28;20159;-77
2023/05/03 03:04:42;;;;;;;1.17;0.68;;;5.20;99.90;;;;;;5131402;27;20044;-77
2023/05/03 03:07:07;;;;;;;2.38;0.50;;;5.20;99.90;;;;;;5132476;27;20028;-77
2023/05/03 03:09:33;;;;;;;0.93;0.50;;;5.20;99.90;;;;;;5104923;28;20506;-77
2023/05/03 03:12:02;;;;;;;1.00;0.50;;;5.20;99.90;;;;;;5088772;28;20036;-77
2023/05/03 03:14:28;;;;;;;0.98;0.55;;;5.10;99.90;;;;;;5100160;28;20043;-77
2023/05/03 03:16:53;;;;;;;2.33;0.65;;;5.10;99.90;;;;;;5096437;28;20039;-77
2023/05/03 03:19:19;;;;;;;0.90;0.50;;;5.00;99.90;;;;;;5103539;28;20093;-77
2023/05/03 03:21:45;;;;;;;0.73;0.55;;;5.00;99.90;;;;;;5096525;28;20154;-77
2023/05/03 03:24:10;;;;;;;1.30;0.60;;;5.00;99.90;;;;;;5096476;28;20051;-77
2023/05/03 03:26:36;;;;;;;3.60;0.73;;;5.00;99.90;;;;;;5084938;28;20048;-77
2023/05/03 03:29:01;;;;;;;4.15;0.75;;;5.00;99.90;;;;;;5101370;28;20695;-77
2023/05/03 03:31:27;;;;;;;3.00;1.00;;;4.90;99.90;;;;;;5097716;28;20042;-77
2023/05/03 03:33:53;;;;;;;1.35;0.70;;;4.90;99.90;;;;;;5095614;28;20069;-77
2023/05/03 03:36:18;;;;;;;1.27;0.73;;;4.90;99.90;;;;;;5098356;28;20120;-77
2023/05/03 03:38:44;;;;;;;0.60;0.50;;;4.90;99.90;;;;;;5082290;28;20048;-77
2023/05/03 03:41:10;;;;;;;1.35;0.50;;;4.80;99.90;;;;;;5096513;28;20389;-77
2023/05/03 03:43:35;;;;;;;2.47;0.80;;;4.80;99.90;;;;;;5078664;28;20046;-77
2023/05/03 03:46:01;;;;;;;1.45;0.88;;;4.80;99.90;;;;;;5129380;27;20499;-77
2023/05/03 03:48:27;;;;;;;1.20;0.70;;;4.80;99.90;;;;;;5100510;28;20472;-77
2023/05/03 03:50:52;;;;;;;1.35;0.80;;;4.80;99.90;;;;;;5097647;28;20478;-77
2023/05/03 03:53:18;;;;;;;1.65;0.95;;;4.70;99.90;;;;;;5077318;28;20023;-77
2023/05/03 03:55:44;;;;;;;1.80;0.75;;;4.70;99.90;;;;;;5098913;28;20044;-77
2023/05/03 03:58:09;;;;;;;1.42;0.70;;;4.70;99.90;;;;;;5092294;28;20043;-76
2023/05/03 04:00:35;;;;;;;2.08;0.60;;;4.60;99.90;;;;;;5130948;27;20070;-76
2023/05/03 04:03:01;;;;;;;1.13;0.73;;;4.60;99.90;;;;;;5094156;28;20040;-77
2023/05/03 04:05:27;;;;;;;1.67;0.70;;;4.60;99.90;;;;;;5080493;28;20044;-77
2023/05/03 04:07:52;;;;;;;2.45;1.00;;;4.50;99.90;;;;;;5095907;28;20047;-76
2023/05/03 04:10:18;;;;;;;2.50;0.60;;;4.50;99.90;;;;;;5130716;27;20035;-77
2023/05/03 04:12:44;;;;;;;1.92;0.60;;;4.50;99.90;;;;;;5095373;28;20039;-77
2023/05/03 04:15:10;;;;;;;0.80;0.57;;;4.40;99.90;;;;;;5076580;28;20040;-77
2023/05/03 04:17:36;;;;;;;1.88;0.80;;;4.50;99.90;;;;;;5095658;28;20077;-77
2023/05/03 04:20:09;;;;;;;1.75;1.00;;;4.50;99.90;;;;;;5133872;27;20043;-77
2023/05/03 04:22:38;;;;;;;1.58;0.80;;;4.50;99.90;;;;;;5077699;28;20469;-77
2023/05/03 04:25:05;;;;;;;1.92;0.70;;;4.50;99.90;;;;;;5076239;28;20028;-77
2023/05/03 04:27:32;;;;;;;1.85;1.05;;;4.50;99.90;;;;;;5099268;28;20171;-77
2023/05/03 04:29:58;;;;;;;3.40;1.20;;;4.60;99.90;;;;;;5084207;28;20039;-77
2023/05/03 04:32:24;;;;;;;3.47;1.10;;;4.60;99.90;;;;;;5074542;28;20059;-77
2023/05/03 04:34:51;;;;;;;3.38;1.00;;;4.60;99.90;;;;;;5088665;28;20543;-77
2023/05/03 04:37:18;;;;;;;2.20;0.90;;;4.60;99.90;;;;;;5099115;28;20400;-77
2023/05/03 04:39:44;;;;;;;1.75;1.00;;;4.70;99.90;;;;;;5100793;28;20050;-77
2023/05/03 04:42:14;;;;;;;2.65;0.90;;;4.70;99.90;;;;;;5097371;28;20028;-77
2023/05/03 04:44:40;;;;;;;2.08;1.08;;;4.70;99.90;;;;;;5112135;27;20043;-77
2023/05/03 04:47:06;;;;;;;2.08;0.70;;;4.80;99.90;;;;;;5078427;28;20527;-77
2023/05/03 04:49:33;;;;;;;2.20;0.90;;;4.80;99.90;;;;;;5081373;28;20039;-77
2023/05/03 04:51:59;;;;;;;3.30;1.05;;;4.90;99.90;;;;;;5107401;27;20042;-77
2023/05/03 04:54:25;;;;;;;1.63;0.70;;;4.90;99.90;;;;;;5093541;28;20122;-77
2023/05/03 04:56:51;;;;;;;1.98;1.08;;;5.00;99.90;;;;;;5074113;28;20028;-77
2023/05/03 04:59:16;;;;;;;2.50;0.75;;;5.00;99.90;;;;;;5103207;28;20524;-77
2023/05/03 05:01:42;;;;;;;1.70;0.85;;;5.00;99.90;;;;;;5117925;27;20280;-77
2023/05/03 05:04:08;;;;;;;2.05;1.00;;;5.10;99.90;;;;;;5094611;28;20043;-77
2023/05/03 05:06:33;;;;;;;2.42;1.20;;;5.10;99.90;;;;;;5111089;27;20036;-77
2023/05/03 05:08:59;;;;;;;2.47;0.77;;;5.20;99.90;;;;;;5127572;27;20128;-77
2023/05/03 05:11:26;;;;;;;1.60;0.85;;;5.20;99.90;;;;;;5091222;28;20061;-77
2023/05/03 05:13:51;;;;;;;1.60;0.90;;;5.30;99.90;;;;;;5113464;27;20047;-77
2023/05/03 05:16:18;;;;;;;2.60;0.90;;;5.30;99.90;;;;;;5095551;28;20413;-77
2023/05/03 05:18:43;;;;;;;1.90;1.10;;;5.30;99.90;;;;;;5077526;28;20122;-77
2023/05/03 05:21:09;;;;;;;2.58;1.00;;;5.40;99.90;;;;;;5100019;28;20127;-77
2023/05/03 05:23:35;;;;;;;3.08;1.00;;;5.40;99.90;;;;;;5105459;27;20039;-77
2023/05/03 05:26:00;;;;;;;2.55;1.10;;;5.50;99.90;;;;;;5090020;27;20035;-77
2023/05/03 05:28:27;;;;;;;2.67;1.10;;;5.50;99.90;;;;;;5090537;28;20044;-77
2023/05/03 05:30:53;;;;;;;1.83;0.98;;;5.60;99.90;;;;;;5094825;28;20386;-77
2023/05/03 05:33:18;;;;;;;3.45;1.10;;;5.70;99.90;;;;;;5096861;28;20042;-77
2023/05/03 05:35:46;;;;;;;1.80;0.95;;;5.70;99.90;;;;;;5110625;27;20118;-76
2023/05/03 05:38:11;;;;;;;4.25;1.30;;;5.80;99.90;;;;;;5081110;28;20031;-77
2023/05/03 05:40:37;;;;;;;1.75;0.90;;;5.90;99.90;;;;;;5107818;27;20043;-77
2023/05/03 05:43:03;;;;;;;1.98;1.25;;;5.90;99.90;;;;;;5076941;28;20072;-77
2023/05/03 05:45:29;;;;;;;1.95;1.08;;;6.00;99.90;;;;;;5130951;27;20036;-78
2023/05/03 05:47:55;;;;;;;2.03;1.00;;;6.00;99.90;;;;;;5087534;28;20115;-77
2023/05/03 05:50:21;;;;;;;2.78;1.38;;;6.10;99.90;;;;;;5095385;28;20500;-77
2023/05/03 05:52:49;;;;;;;2.97;1.30;;;6.20;99.90;;;;;;5076873;28;20299;-77
2023/05/03 05:55:15;;;;;;;2.72;1.38;;;6.20;99.90;;;;;;5095588;28;20088;-77
2023/05/03 05:57:40;;;;;;;2.70;1.17;;;6.30;99.90;;;;;;5097478;27;20032;-77
2023/05/03 06:00:13;;;;;;;2.55;1.27;;;6.40;99.90;;;;;;5085518;28;20039;-77
2023/05/03 06:02:40;;;;;;;2.78;1.20;;;6.50;99.90;;;;;;5097880;28;20499;-80
2023/05/03 06:05:06;;;;;;;2.83;1.20;;;6.50;99.90;;;;;;5099545;28;20470;-77
2023/05/03 06:07:32;;;;;;;1.98;0.93;;;6.60;99.90;;;;;;5095427;28;21460;-76
2023/05/03 06:09:57;;;;;;;2.40;1.02;;;6.60;99.90;;;;;;5091917;28;20093;-76
2023/05/03 06:12:23;;;;;;;7.38;1.45;;;6.70;99.90;;;;;;5080459;28;20027;-76
2023/05/03 06:14:48;;;;;;;2.55;1.08;;;6.80;99.90;;;;;;5099414;28;20647;-76
2023/05/03 06:17:14;;;;;;;2.90;1.40;;;6.80;99.90;;;;;;5097121;28;20032;-76
2023/05/03 06:19:40;;;;;;;2.80;1.33;;;6.90;99.90;;;;;;5123214;27;20052;-77
2023/05/03 06:22:05;;;;;;;7.32;1.60;;;6.90;99.90;;;;;;5124472;27;21142;-77
2023/05/03 06:24:31;;;;;;;2.90;1.27;;;7.00;99.90;;;;;;5085853;28;20028;-77
2023/05/03 06:26:58;;;;;;;3.95;1.52;;;7.00;99.90;;;;;;5087075;28;20085;-77
2023/05/03 06:29:25;;;;;;;2.15;1.00;;;7.10;99.90;;;;;;5091444;28;20143;-77
2023/05/03 06:31:50;;;;;;;3.53;1.45;;;7.10;99.90;;;;;;5088035;28;20067;-77
2023/05/03 06:34:19;;;;;;;3.05;1.33;;;7.20;99.90;;;;;;5093014;28;20078;-77
2023/05/03 06:36:44;;;;;;;8.90;1.60;;;7.20;99.90;;;;;;5126228;27;20036;-77
2023/05/03 06:39:10;;;;;;;2.92;1.20;;;7.20;99.90;;;;;;5100764;28;20067;-77
2023/05/03 06:41:36;;;;;;;2.67;1.40;;;7.30;99.90;;;;;;5080194;28;20043;-77
2023/05/03 06:44:03;;;;;;;2.38;1.20;;;7.30;99.90;;;;;;5083210;28;20043;-77
2023/05/03 06:46:28;;;;;;;4.03;1.20;;;7.30;99.90;;;;;;5079578;28;20504;-77
2023/05/03 06:48:55;;;;;;;2.03;1.02;;;7.40;99.90;;;;;;5115252;28;20074;-77
2023/05/03 06:51:26;;;;;;;1.90;0.90;;;7.40;99.90;;;;;;5098385;28;20036;-77
2023/05/03 06:53:56;;;;;;;8.05;1.25;;;7.40;99.90;;;;;;5095412;28;20047;-77
2023/05/03 06:56:22;;;;;;;5.80;1.17;;;7.40;99.90;;;;;;5078226;28;20042;-77
2023/05/03 06:58:48;;;;;;;2.78;1.45;;;7.50;99.90;;;;;;5079680;28;20660;-77
2023/05/03 07:01:16;;;;;;;2.25;1.17;;;7.60;99.90;;;;;;5113833;27;20390;-77
2023/05/03 07:03:41;;;;;;;4.10;1.40;;;7.60;99.90;;;;;;5094508;27;20050;-77
2023/05/03 07:06:10;;;;;;;3.50;1.05;;;7.70;99.90;;;;;;5078501;28;20500;-77
2023/05/03 07:08:36;;;;;;;2.10;1.30;;;7.70;99.90;;;;;;5132973;27;20049;-77
2023/05/03 07:11:03;;;;;;;2.67;1.02;;;7.70;99.90;;;;;;5120468;27;20105;-77
2023/05/03 07:13:29;;;;;;;1.42;0.90;;;7.70;99.90;;;;;;5100163;28;20054;-77
2023/05/03 07:15:54;;;;;;;2.03;0.90;;;7.80;99.90;;;;;;5076339;28;20493;-76
2023/05/03 07:18:20;;;;;;;2.05;0.82;;;7.80;99.90;;;;;;5098813;28;20054;-76
2023/05/03 07:20:46;;;;;;;1.60;1.13;;;7.90;99.90;;;;;;5132402;27;20035;-77
2023/05/03 07:23:11;;;;;;;1.75;0.70;;;8.00;99.90;;;;;;5101500;28;20035;-77
2023/05/03 07:25:38;;;;;;;2.95;0.85;;;8.00;99.90;;;;;;5129335;27;20525;-77
2023/05/03 07:28:04;;;;;;;2.33;0.95;;;8.00;99.90;;;;;;5080631;28;20405;-77
2023/05/03 07:30:29;;;;;;;2.22;0.88;;;8.00;99.90;;;;;;5132761;27;20024;-77
2023/05/03 07:32:55;;;;;;;1.52;0.70;;;8.00;99.90;;;;;;5084588;28;20088;-77
2023/05/03 07:35:22;;;;;;;1.15;0.70;;;8.10;99.90;;;;;;5110763;28;20126;-77
2023/05/03 07:37:47;;;;;;;1.48;0.80;;;8.10;99.90;;;;;;5110664;28;20067;-76
2023/05/03 07:40:13;;;;;;;1.60;0.82;;;8.20;99.90;;;;;;5088171;28;20067;-76
2023/05/03 07:42:39;;;;;;;1.38;0.70;;;8.20;99.90;;;;;;5109791;28;20512;-76
2023/05/03 07:45:05;;;;;;;1.08;0.57;;;8.20;99.90;;;;;;5111446;27;20067;-76
2023/05/03 07:47:32;;;;;;;1.23;0.75;;;8.30;99.90;;;;;;5098961;28;20071;-76
2023/05/03 07:49:57;;;;;;;1.17;0.75;;;8.30;99.90;;;;;;5089587;28;20032;-76
2023/05/03 07:52:23;;;;;;;3.80;1.40;;;8.30;99.90;;;;;;5104974;27;20078;-76
2023/05/03 07:54:49;;;;;;;2.28;0.65;;;8.40;99.90;;;;;;5072191;28;20036;-76
2023/05/03 07:57:15;;;;;;;1.10;0.77;;;8.40;99.90;;;;;;5090216;27;20036;-76
2023/05/03 07:59:42;;;;;;;1.45;0.70;;;8.40;99.90;;;;;;5087812;27;20036;-76
2023/05/03 08:02:08;;;;;;;1.48;0.70;;;8.40;99.90;;;;;;5092795;27;20690;-76
2023/05/03 08:04:34;;;;;;;1.27;0.60;;;8.40;99.90;;;;;;5094160;27;20042;-77
2023/05/03 08:07:01;;;;;;;2.83;0.85;;;8.50;99.90;;;;;;5089397;28;20042;-77
2023/05/03 08:09:27;;;;;;;2.80;0.60;;;8.50;99.90;;;;;;5098374;27;20028;-77
2023/05/03 08:11:55;;;;;;;0.57;0.50;;;8.50;99.90;;;;;;5091038;27;20090;-77
2023/05/03 08:14:20;;;;;;;1.17;0.50;;;8.50;99.90;;;;;;5097894;28;20123;-77
2023/05/03 08:16:46;;;;;;;3.95;0.75;;;8.60;99.90;;;;;;5122036;27;20114;-77
2023/05/03 08:19:12;;;;;;;3.67;0.95;;;8.60;99.90;;;;;;5086542;27;20063;-77
2023/05/03 08:21:37;;;;;;;1.63;0.80;;;8.60;99.90;;;;;;5085083;27;20044;-77
2023/05/03 08:24:05;;;;;;;2.35;0.70;;;8.60;99.90;;;;;;5087358;27;20060;-77
2023/05/03 08:26:31;;;;;;;1.45;0.75;;;8.60;99.90;;;;;;5072137;27;20058;-77
2023/05/03 08:28:57;;;;;;;1.30;0.60;;;8.70;99.90;;;;;;5088163;27;20040;-77
2023/05/03 08:31:24;;;;;;;1.73;0.57;;;8.70;99.90;;;;;;5089013;27;20044;-77
2023/05/03 08:33:50;;;;;;;0.85;0.47;;;8.80;99.90;;;;;;5084028;28;20050;-76
2023/05/03 08:36:16;;;;;;;2.05;0.65;;;8.80;99.90;;;;;;5092865;27;20888;-76
2023/05/03 08:38:41;;;;;;;3.78;0.70;;;8.80;99.90;;;;;;5124378;27;20402;-76
2023/05/03 08:41:24;;;;;;;3.08;0.80;;;8.90;99.90;;;;;;5090713;27;20059;-77
2023/05/03 08:43:54;;;;;;;1.65;0.73;;;9.00;99.90;;;;;;5089770;27;20066;-77
2023/05/03 08:46:20;;;;;;;2.78;0.80;;;8.90;99.90;;;;;;5088150;27;20043;-76
2023/05/03 08:48:51;;;;;;;1.70;0.90;;;9.00;99.90;;;;;;5105176;27;20039;-77
2023/05/03 08:51:18;;;;;;;1.98;0.80;;;9.10;99.90;;;;;;5089492;27;20509;-76
2023/05/03 08:53:44;;;;;;;4.72;1.50;;;9.10;99.80;;;;;;5091183;27;20126;-76
2023/05/03 08:56:13;;;;;;;1.13;0.68;;;9.20;99.20;;;;;;5088602;28;20043;-76
2023/05/03 08:58:39;;;;;;;1.08;0.70;;;9.20;99.20;;;;;;5121402;27;20044;-76
2023/05/03 09:01:06;;;;;;;1.35;0.70;;;9.30;98.80;;;;;;5090906;27;20043;-76
2023/05/03 09:03:33;;;;;;;2.30;0.70;;;9.30;99.10;;;;;;5090006;28;20085;-76
2023/05/03 09:06:02;;;;;;;2.30;0.82;;;9.30;99.30;;;;;;5092644;27;20093;-76
2023/05/03 09:08:41;;;;;;;3.30;1.23;;;9.30;99.30;;;;;;5115990;27;20085;-75
2023/05/03 09:11:26;;;;;;;1.90;1.00;;;9.30;99.10;;;;;;5125159;27;20051;-75
2023/05/03 09:13:53;;;;;;;1.70;0.80;;;9.40;98.80;;;;;;5089320;27;20158;-75
2023/05/03 09:16:26;;;;;;;1.25;0.60;;;9.40;99.00;;;;;;5089137;28;20029;-75
2023/05/03 09:19:03;;;;;;;1.40;0.82;;;9.50;98.80;;;;;;5084131;28;20056;-75
2023/05/03 09:21:32;;;;;;;2.22;1.00;;;9.50;99.00;;;;;;5121249;27;20046;-76
2023/05/03 09:23:58;;;;;;;3.17;0.90;;;9.50;98.80;;;;;;5086098;28;20040;-76
2023/05/03 09:26:32;;;;;;;2.00;0.90;;;9.50;98.60;;;;;;5091250;27;20051;-77
2023/05/03 09:28:58;;;;;;;0.85;0.68;;;9.50;98.20;;;;;;5108730;27;20040;-75
2023/05/03 09:31:25;;;;;;;1.83;1.00;;;9.50;98.20;;;;;;5091176;27;20375;-75
2023/05/03 09:33:52;;;;;;;2.38;1.08;;;9.50;98.30;;;;;;5088808;28;20040;-75
2023/05/03 09:36:18;;;;;;;1.83;0.93;;;9.50;98.20;;;;;;5073545;28;20032;-75
2023/05/03 09:38:43;;;;;;;1.83;1.00;;;9.50;98.20;;;;;;5089815;28;20040;-76
2023/05/03 09:41:09;;;;;;;1.83;1.02;;;9.50;98.00;;;;;;5071813;28;20142;-76
2023/05/03 09:43:51;;;;;;;5.45;1.10;;;9.50;97.70;;;;;;5091638;27;20062;-76
2023/05/03 09:46:17;;;;;;;2.17;0.80;;;9.50;97.50;;;;;;5088524;27;20063;-76
2023/05/03 09:48:43;;;;;;;1.63;0.90;;;9.50;97.70;;;;;;5067238;28;20446;-75
2023/05/03 09:51:10;;;;;;;1.70;0.73;;;9.50;97.70;;;;;;5087368;27;20036;-75
2023/05/03 09:53:37;;;;;;;3.38;0.98;;;9.50;97.60;;;;;;5069663;28;20039;-75
2023/05/03 09:56:07;;;;;;;1.77;1.02;;;9.50;97.40;;;;;;5115206;27;20044;-75
2023/05/03 09:58:34;;;;;;;1.80;0.95;;;9.50;96.90;;;;;;5068490;28;20046;-75
2023/05/03 10:01:00;;;;;;;1.58;0.90;;;9.60;97.20;;;;;;5091166;28;20069;-75
2023/05/03 10:03:40;;;;;;;2.38;1.00;;;9.60;97.60;;;;;;5099542;28;20040;-76
2023/05/03 10:06:16;;;;;;;2.75;1.00;;;9.70;97.40;;;;;;5091820;28;20078;-76
2023/05/03 10:09:05;;;;;;;1.70;1.02;;;9.70;97.40;;;;;;5070495;28;20516;-76
2023/05/03 10:11:35;;;;;;;1.60;1.10;;;9.80;97.50;;;;;;5073422;28;20036;-76
2023/05/03 10:14:01;;;;;;;1.67;1.10;;;9.80;97.40;;;;;;5105098;28;20036;-76
2023/05/03 10:16:31;;;;;;;2.03;0.90;;;9.90;97.50;;;;;;5086251;28;20086;-75
2023/05/03 10:19:24;;;;;;;2.63;1.08;;;9.90;97.20;;;;;;5086427;28;20092;-76
2023/05/03 10:21:58;;;;;;;2.28;1.40;;;9.90;96.70;;;;;;5084135;28;20040;-76
2023/05/03 10:24:24;;;;;;;2.63;1.45;;;9.90;97.40;;;;;;5069097;28;20482;-76
2023/05/03 10:26:50;;;;;;;3.92;1.48;;;10.00;97.30;;;;;;5075746;28;20028;-75
2023/05/03 10:29:34;;;;;;;1.88;1.27;;;10.00;97.30;;;;;;5105506;28;20269;-75
2023/05/03 10:32:01;;;;;;;2.20;1.05;;;10.00;96.30;;;;;;5073783;28;20047;-75
2023/05/03 10:34:38;;;;;;;1.60;1.00;;;10.00;96.90;;;;;;5090265;27;20088;-75
2023/05/03 10:37:10;;;;;;;2.95;0.95;;;10.00;96.00;;;;;;5073718;28;20035;-75
2023/05/03 10:39:36;;;;;;;1.70;1.05;;;9.90;95.90;;;;;;5093324;27;20040;-75
2023/05/03 10:42:06;;;;;;;1.52;1.00;;;9.90;96.10;;;;;;5078151;28;20121;-75
2023/05/03 10:45:00;;;;;;;1.55;1.10;;;9.80;96.10;;;;;;5094412;27;20097;-75
2023/05/03 10:47:25;;;;;;;2.15;1.10;;;9.90;94.90;;;;;;5123466;27;20059;-76
2023/05/03 10:50:13;;;;;;;3.50;1.23;;;9.90;96.00;;;;;;5092273;27;20032;-75
2023/05/03 10:52:38;;;;;;;2.08;1.00;;;9.90;95.50;;;;;;5070739;27;20404;-75
2023/05/03 10:55:30;;;;;;;1.63;1.02;;;10.00;95.70;;;;;;5092286;27;20043;-75
2023/05/03 10:57:58;;;;;;;1.55;1.05;;;9.90;94.80;;;;;;5070615;28;20512;-75
2023/05/03 11:00:34;;;;;;;6.47;1.30;;;9.90;95.20;;;;;;5091480;27;20044;-75
2023/05/03 11:03:29;;;;;;;2.33;1.00;;;10.00;95.00;;;;;;5091306;27;20393;-75
2023/05/03 11:05:56;;;;;;;1.70;0.90;;;10.00;94.30;;;;;;5091663;27;20024;-76
2023/05/03 11:08:24;;;;;;;2.00;1.08;;;10.10;95.40;;;;;;5093594;27;20427;-75
2023/05/03 11:10:58;;;;;;;1.70;1.10;;;10.20;95.40;;;;;;5092534;27;20032;-75
2023/05/03 11:13:23;;;;;;;1.73;1.15;;;10.20;95.20;;;;;;5088210;27;20128;-75
2023/05/03 11:15:49;;;;;;;1.83;1.00;;;10.30;95.30;;;;;;5125570;27;20063;-75
2023/05/03 11:18:15;;;;;;;2.40;0.95;;;10.40;95.80;;;;;;5097119;27;20043;-75
2023/05/03 11:20:41;;;;;;;1.90;1.10;;;10.50;95.20;;;;;;5092948;27;20067;-75
2023/05/03 11:23:06;;;;;;;1.80;1.20;;;10.60;95.00;;;;;;5092084;27;20036;-75
2023/05/03 11:25:33;;;;;;;1.77;1.08;;;10.60;94.60;;;;;;5083642;28;20566;-75
2023/05/03 11:28:00;;;;;;;2.30;1.23;;;10.60;94.70;;;;;;5096692;27;20044;-75
2023/05/03 11:30:27;;;;;;;2.00;1.08;;;10.60;94.60;;;;;;5099713;27;20035;-75
2023/05/03 11:32:52;;;;;;;3.85;1.00;;;10.50;94.20;;;;;;5095843;27;20043;-75
2023/05/03 11:35:22;;;;;;;2.85;0.93;;;10.50;94.60;;;;;;5087843;27;20114;-75
2023/05/03 11:37:48;;;;;;;2.72;1.17;;;10.40;94.60;;;;;;5122501;27;20115;-78
2023/05/03 11:40:18;;;;;;;3.45;1.25;;;10.50;94.60;;;;;;5074246;28;20161;-74
2023/05/03 11:42:55;;;;;;;2.72;1.08;;;10.50;94.40;;;;;;5103891;27;20173;-75
2023/05/03 11:45:25;;;;;;;1.30;0.90;;;10.40;93.40;;;;;;5074546;28;20074;-75
2023/05/03 11:47:51;;;;;;;2.17;1.10;;;10.50;93.30;;;;;;5081779;28;20042;-74
2023/05/03 11:50:25;;;;;;;2.63;1.05;;;10.40;93.20;;;;;;5089153;27;20032;-75
2023/05/03 11:52:51;;;;;;;1.65;1.08;;;10.50;92.80;;;;;;5084667;28;20034;-75
2023/05/03 11:55:17;;;;;;;2.75;1.48;;;10.50;93.00;;;;;;5110575;28;20452;-75
2023/05/03 11:57:43;;;;;;;4.13;1.33;;;10.50;92.90;;;;;;5124724;27;20074;-75
2023/05/03 12:00:16;;;;;;;2.45;1.30;;;10.50;93.50;;;;;;5127294;27;20044;-75
2023/05/03 12:02:51;;;;;;;3.80;1.30;;;10.60;93.80;;;;;;5107167;28;20031;-75
2023/05/03 12:05:17;;;;;;;;;;;10.70;93.30;;;;;;5101344;28;20055;-75
2023/05/03 12:07:43;;;;;;;2.85;1.30;;;10.70;86.40;;;;;;5105965;28;19919;-75
2023/05/03 12:10:19;;;;;;;2.53;0.98;;;10.70;91.90;;;;;;5106851;27;20044;-75
2023/05/03 12:12:52;;;;;;;2.25;1.20;;;10.70;91.70;;;;;;5109216;28;20032;-76
2023/05/03 12:15:27;;;;;;;2.22;1.25;;;10.70;92.10;;;;;;5093331;28;20059;-76
2023/05/03 12:17:56;;;;;;;1.92;1.20;;;10.80;91.20;;;;;;5104792;27;20043;-76
2023/05/03 12:20:22;;;;;;;2.58;1.13;;;10.80;92.00;;;;;;5109713;28;20132;-76
2023/05/03 12:22:54;;;;;;;2.97;1.30;;;10.80;91.90;;;;;;5109188;28;20042;-76
2023/05/03 12:25:21;;;;;;;1.80;1.10;;;10.90;92.00;;;;;;5090122;28;20032;-76
2023/05/03 12:27:47;;;;;;;1.63;1.10;;;10.90;92.60;;;;;;5084649;28;20047;-76
2023/05/03 12:30:13;;;;;;;1.75;0.90;;;10.90;92.10;;;;;;5107733;28;20170;-76
2023/05/03 12:32:39;;;;;;;1.45;0.80;;;10.90;92.00;;;;;;5089105;28;20413;-76
2023/05/03 12:35:06;;;;;;;2.38;1.33;;;11.00;92.10;;;;;;5089326;28;20075;-76
2023/05/03 12:37:31;;;;;;;2.33;1.25;;;11.00;92.10;;;;;;5092782;27;20036;-76
2023/05/03 12:40:00;;;;;;;2.28;0.95;;;11.00;91.60;;;;;;5091838;28;20040;-76
2023/05/03 13:08:13;;;;;;;2.90;1.30;;;11.10;88.00;;;;;;5110069;28;20066;-75
2023/05/03 13:10:39;;;;;;;1.88;1.10;;;11.10;90.60;;;;;;5098195;27;20072;-75
2023/05/03 13:13:05;;;;;;;2.33;1.30;;;11.20;90.10;;;;;;5070503;28;20438;-75
2023/05/03 13:15:33;;;;;;;3.17;1.10;;;11.10;90.00;;;;;;5093441;28;20088;-75
2023/05/03 13:18:00;;;;;;;1.48;1.10;;;11.20;90.30;;;;;;5091462;28;20043;-75
2023/05/03 13:20:26;;;;;;;3.47;0.95;;;11.10;90.10;;;;;;5107678;28;20059;-75
2023/05/03 13:22:52;;;;;;;2.20;1.13;;;11.20;90.50;;;;;;5142725;27;20040;-75
2023/05/03 13:25:17;;;;;;;2.20;1.20;;;11.20;90.80;;;;;;5107719;28;20038;-75